sensor_id;sensor_type;location;lat;lon;timestamp;P1;durP1;ratioP1;P2;durP2;ratioP2
12511;SDS011;6321;53.798;10.382;2023-02-01T00:00:43;23.93;;;4.57;;
12511;SDS011;6321;53.798;10.382;2023-02-01T00:03:09;10.63;;;3.80;;
12511;SDS011;6321;53.798;10.382;2023-02-01T00:05:37;17.57;;;3.97;;
12511;SDS011;6321;53.798;10.382;2023-02-01T00:08:03;8.93;;;2.43;;
12511;SDS011;6321;53.798;10.382;2023-02-01T00:10:29;12.67;;;3.13;;
12511;SDS011;6321;53.798;10.382;2023-02-01T00:12:55;11.67;;;2.60;;
12511;SDS011;6321;53.798;10.382;2023-02-01T00:15:21;14.73;;;2.30;;
12511;SDS011;6321;53.798;10.382;2023-02-01T00:17:48;22.00;;;4.30;;
12511;SDS011;6321;53.798;10.382;2023-02-01T00:20:14;17.10;;;3.40;;
12511;SDS011;6321;53.798;10.382;2023-02-01T00:22:39;7.00;;;2.53;;
12511;SDS011;6321;53.798;10.382;2023-02-01T00:25:05;10.30;;;3.23;;
12511;SDS011;6321;53.798;10.382;2023-02-01T00:27:31;5.17;;;1.87;;
12511;SDS011;6321;53.798;10.382;2023-02-01T00:29:58;11.67;;;2.90;;
12511;SDS011;6321;53.798;10.382;2023-02-01T00:32:24;18.70;;;3.57;;
12511;SDS011;6321;53.798;10.382;2023-02-01T00:34:50;10.03;;;2.87;;
12511;SDS011;6321;53.798;10.382;2023-02-01T00:37:16;13.43;;;3.30;;
12511;SDS011;6321;53.798;10.382;2023-02-01T00:39:41;16.33;;;3.40;;
12511;SDS011;6321;53.798;10.382;2023-02-01T00:42:07;13.50;;;3.50;;
12511;SDS011;6321;53.798;10.382;2023-02-01T00:44:34;13.20;;;3.90;;
12511;SDS011;6321;53.798;10.382;2023-02-01T00:47:00;10.37;;;3.47;;
12511;SDS011;6321;53.798;10.382;2023-02-01T00:49:27;23.30;;;5.35;;
12511;SDS011;6321;53.798;10.382;2023-02-01T00:51:53;10.33;;;2.33;;
12511;SDS011;6321;53.798;10.382;2023-02-01T00:54:19;10.83;;;3.27;;
12511;SDS011;6321;53.798;10.382;2023-02-01T00:56:45;12.07;;;3.03;;
12511;SDS011;6321;53.798;10.382;2023-02-01T00:59:11;10.20;;;3.10;;
12511;SDS011;6321;53.798;10.382;2023-02-01T01:01:37;11.50;;;3.40;;
12511;SDS011;6321;53.798;10.382;2023-02-01T01:04:04;19.53;;;3.77;;
12511;SDS011;6321;53.798;10.382;2023-02-01T01:06:31;10.93;;;2.87;;
12511;SDS011;6321;53.798;10.382;2023-02-01T01:08:58;12.53;;;3.17;;
12511;SDS011;6321;53.798;10.382;2023-02-01T01:11:25;18.07;;;3.73;;
12511;SDS011;6321;53.798;10.382;2023-02-01T01:13:52;17.27;;;3.73;;
12511;SDS011;6321;53.798;10.382;2023-02-01T01:16:20;11.33;;;3.00;;
12511;SDS011;6321;53.798;10.382;2023-02-01T01:18:46;8.60;;;2.67;;
12511;SDS011;6321;53.798;10.382;2023-02-01T01:21:13;8.77;;;2.80;;
12511;SDS011;6321;53.798;10.382;2023-02-01T01:23:39;16.63;;;4.10;;
12511;SDS011;6321;53.798;10.382;2023-02-01T01:26:06;21.47;;;3.30;;
12511;SDS011;6321;53.798;10.382;2023-02-01T01:28:32;11.90;;;3.40;;
12511;SDS011;6321;53.798;10.382;2023-02-01T01:30:58;13.47;;;3.60;;
12511;SDS011;6321;53.798;10.382;2023-02-01T01:33:24;15.27;;;3.77;;
12511;SDS011;6321;53.798;10.382;2023-02-01T01:35:50;14.53;;;3.03;;
12511;SDS011;6321;53.798;10.382;2023-02-01T01:38:16;20.47;;;4.53;;
12511;SDS011;6321;53.798;10.382;2023-02-01T01:40:45;7.77;;;2.77;;
12511;SDS011;6321;53.798;10.382;2023-02-01T01:43:14;20.70;;;3.47;;
12511;SDS011;6321;53.798;10.382;2023-02-01T01:45:41;13.80;;;4.07;;
12511;SDS011;6321;53.798;10.382;2023-02-01T01:48:08;14.53;;;4.13;;
12511;SDS011;6321;53.798;10.382;2023-02-01T01:53:13;17.00;;;3.17;;
12511;SDS011;6321;53.798;10.382;2023-02-01T01:55:42;24.43;;;4.97;;
12511;SDS011;6321;53.798;10.382;2023-02-01T01:58:10;17.30;;;3.90;;
12511;SDS011;6321;53.798;10.382;2023-02-01T02:00:37;16.87;;;3.83;;
12511;SDS011;6321;53.798;10.382;2023-02-01T02:03:08;9.87;;;2.67;;
12511;SDS011;6321;53.798;10.382;2023-02-01T02:05:35;19.77;;;3.63;;
12511;SDS011;6321;53.798;10.382;2023-02-01T02:08:01;17.90;;;4.50;;
12511;SDS011;6321;53.798;10.382;2023-02-01T02:10:27;10.53;;;3.23;;
12511;SDS011;6321;53.798;10.382;2023-02-01T02:13:12;23.70;;;3.50;;
12511;SDS011;6321;53.798;10.382;2023-02-01T02:15:40;18.07;;;4.37;;
12511;SDS011;6321;53.798;10.382;2023-02-01T02:18:09;16.97;;;4.57;;
12511;SDS011;6321;53.798;10.382;2023-02-01T02:20:49;15.97;;;3.77;;
12511;SDS011;6321;53.798;10.382;2023-02-01T02:31:40;16.73;;;3.70;;
12511;SDS011;6321;53.798;10.382;2023-02-01T02:34:14;8.93;;;2.97;;
12511;SDS011;6321;53.798;10.382;2023-02-01T02:39:16;8.53;;;3.37;;
12511;SDS011;6321;53.798;10.382;2023-02-01T02:44:37;19.07;;;3.63;;
12511;SDS011;6321;53.798;10.382;2023-02-01T02:47:29;24.43;;;3.90;;
12511;SDS011;6321;53.798;10.382;2023-02-01T02:50:05;11.60;;;2.93;;
12511;SDS011;6321;53.798;10.382;2023-02-01T02:52:56;27.67;;;5.13;;
12511;SDS011;6321;53.798;10.382;2023-02-01T02:55:42;19.93;;;4.53;;
12511;SDS011;6321;53.798;10.382;2023-02-01T02:58:08;20.90;;;4.97;;
12511;SDS011;6321;53.798;10.382;2023-02-01T03:00:55;13.93;;;3.87;;
12511;SDS011;6321;53.798;10.382;2023-02-01T03:03:40;19.83;;;3.53;;
12511;SDS011;6321;53.798;10.382;2023-02-01T03:06:25;19.67;;;4.93;;
12511;SDS011;6321;53.798;10.382;2023-02-01T03:08:53;18.30;;;4.53;;
12511;SDS011;6321;53.798;10.382;2023-02-01T03:11:21;29.60;;;5.13;;
12511;SDS011;6321;53.798;10.382;2023-02-01T03:14:09;18.30;;;3.63;;
12511;SDS011;6321;53.798;10.382;2023-02-01T03:16:39;13.83;;;3.43;;
12511;SDS011;6321;53.798;10.382;2023-02-01T03:19:28;14.40;;;3.53;;
12511;SDS011;6321;53.798;10.382;2023-02-01T03:21:53;13.33;;;3.77;;
12511;SDS011;6321;53.798;10.382;2023-02-01T03:24:25;11.80;;;3.83;;
12511;SDS011;6321;53.798;10.382;2023-02-01T03:27:02;11.10;;;2.47;;
12511;SDS011;6321;53.798;10.382;2023-02-01T03:29:35;11.60;;;3.10;;
12511;SDS011;6321;53.798;10.382;2023-02-01T03:32:02;10.97;;;2.50;;
12511;SDS011;6321;53.798;10.382;2023-02-01T03:34:28;9.53;;;2.77;;
12511;SDS011;6321;53.798;10.382;2023-02-01T03:36:58;13.60;;;2.50;;
12511;SDS011;6321;53.798;10.382;2023-02-01T03:39:28;15.07;;;3.03;;
12511;SDS011;6321;53.798;10.382;2023-02-01T03:41:56;14.70;;;3.20;;
12511;SDS011;6321;53.798;10.382;2023-02-01T03:47:16;17.43;;;3.67;;
12511;SDS011;6321;53.798;10.382;2023-02-01T03:49:46;14.93;;;3.77;;
12511;SDS011;6321;53.798;10.382;2023-02-01T03:52:14;13.83;;;3.57;;
12511;SDS011;6321;53.798;10.382;2023-02-01T03:54:42;13.87;;;2.23;;
12511;SDS011;6321;53.798;10.382;2023-02-01T03:57:09;22.63;;;4.57;;
12511;SDS011;6321;53.798;10.382;2023-02-01T03:59:40;19.97;;;3.60;;
12511;SDS011;6321;53.798;10.382;2023-02-01T04:02:06;9.07;;;2.83;;
12511;SDS011;6321;53.798;10.382;2023-02-01T04:04:33;5.80;;;1.40;;
12511;SDS011;6321;53.798;10.382;2023-02-01T04:06:59;6.13;;;1.73;;
12511;SDS011;6321;53.798;10.382;2023-02-01T04:09:25;6.60;;;1.90;;
12511;SDS011;6321;53.798;10.382;2023-02-01T04:11:51;9.93;;;2.80;;
12511;SDS011;6321;53.798;10.382;2023-02-01T04:14:17;11.80;;;3.57;;
12511;SDS011;6321;53.798;10.382;2023-02-01T04:16:43;10.63;;;2.40;;
12511;SDS011;6321;53.798;10.382;2023-02-01T04:19:09;11.80;;;2.30;;
12511;SDS011;6321;53.798;10.382;2023-02-01T04:21:35;9.67;;;2.87;;
12511;SDS011;6321;53.798;10.382;2023-02-01T04:24:00;2.87;;;1.30;;
12511;SDS011;6321;53.798;10.382;2023-02-01T04:26:26;7.70;;;1.83;;
12511;SDS011;6321;53.798;10.382;2023-02-01T04:28:52;7.90;;;2.13;;
12511;SDS011;6321;53.798;10.382;2023-02-01T04:31:18;5.40;;;1.17;;
12511;SDS011;6321;53.798;10.382;2023-02-01T04:33:50;6.33;;;1.20;;
12511;SDS011;6321;53.798;10.382;2023-02-01T04:36:16;6.37;;;1.67;;
12511;SDS011;6321;53.798;10.382;2023-02-01T04:38:44;11.43;;;2.57;;
12511;SDS011;6321;53.798;10.382;2023-02-01T04:41:10;5.33;;;2.00;;
12511;SDS011;6321;53.798;10.382;2023-02-01T04:43:36;9.68;;;2.95;;
12511;SDS011;6321;53.798;10.382;2023-02-01T04:46:02;9.20;;;2.83;;
12511;SDS011;6321;53.798;10.382;2023-02-01T04:48:28;9.10;;;2.87;;
12511;SDS011;6321;53.798;10.382;2023-02-01T04:50:54;7.77;;;2.47;;
12511;SDS011;6321;53.798;10.382;2023-02-01T04:53:20;6.10;;;1.87;;
12511;SDS011;6321;53.798;10.382;2023-02-01T04:55:47;11.20;;;3.30;;
12511;SDS011;6321;53.798;10.382;2023-02-01T04:58:14;10.53;;;2.63;;
12511;SDS011;6321;53.798;10.382;2023-02-01T05:00:40;7.50;;;2.47;;
12511;SDS011;6321;53.798;10.382;2023-02-01T05:03:06;9.63;;;2.10;;
12511;SDS011;6321;53.798;10.382;2023-02-01T05:05:31;4.83;;;2.00;;
12511;SDS011;6321;53.798;10.382;2023-02-01T05:07:57;6.60;;;1.47;;
12511;SDS011;6321;53.798;10.382;2023-02-01T05:10:23;5.40;;;1.53;;
12511;SDS011;6321;53.798;10.382;2023-02-01T05:12:49;6.90;;;1.97;;
12511;SDS011;6321;53.798;10.382;2023-02-01T05:15:34;7.67;;;2.00;;
12511;SDS011;6321;53.798;10.382;2023-02-01T05:18:00;15.03;;;2.77;;
12511;SDS011;6321;53.798;10.382;2023-02-01T05:20:26;8.97;;;2.57;;
12511;SDS011;6321;53.798;10.382;2023-02-01T05:22:51;8.13;;;2.90;;
12511;SDS011;6321;53.798;10.382;2023-02-01T05:25:18;15.47;;;3.10;;
12511;SDS011;6321;53.798;10.382;2023-02-01T05:27:44;14.60;;;3.00;;
12511;SDS011;6321;53.798;10.382;2023-02-01T05:30:10;10.23;;;2.60;;
12511;SDS011;6321;53.798;10.382;2023-02-01T05:32:37;9.70;;;2.70;;
12511;SDS011;6321;53.798;10.382;2023-02-01T05:35:03;5.97;;;2.27;;
12511;SDS011;6321;53.798;10.382;2023-02-01T05:37:28;4.53;;;1.83;;
12511;SDS011;6321;53.798;10.382;2023-02-01T05:39:55;2.00;;;1.00;;
12511;SDS011;6321;53.798;10.382;2023-02-01T05:42:21;3.80;;;1.87;;
12511;SDS011;6321;53.798;10.382;2023-02-01T05:44:46;4.43;;;1.50;;
12511;SDS011;6321;53.798;10.382;2023-02-01T05:47:12;3.97;;;1.30;;
12511;SDS011;6321;53.798;10.382;2023-02-01T05:49:38;6.50;;;1.33;;
12511;SDS011;6321;53.798;10.382;2023-02-01T05:52:04;5.43;;;1.67;;
12511;SDS011;6321;53.798;10.382;2023-02-01T05:54:30;4.00;;;1.20;;
12511;SDS011;6321;53.798;10.382;2023-02-01T05:56:56;4.97;;;1.40;;
12511;SDS011;6321;53.798;10.382;2023-02-01T05:59:22;5.10;;;1.67;;
12511;SDS011;6321;53.798;10.382;2023-02-01T06:01:48;3.57;;;1.10;;
12511;SDS011;6321;53.798;10.382;2023-02-01T06:04:14;2.23;;;1.40;;
12511;SDS011;6321;53.798;10.382;2023-02-01T06:06:40;1.73;;;0.90;;
12511;SDS011;6321;53.798;10.382;2023-02-01T06:09:06;3.40;;;1.20;;
12511;SDS011;6321;53.798;10.382;2023-02-01T06:11:32;3.70;;;0.97;;
12511;SDS011;6321;53.798;10.382;2023-02-01T06:13:58;2.83;;;0.90;;
12511;SDS011;6321;53.798;10.382;2023-02-01T06:16:24;5.50;;;1.03;;
12511;SDS011;6321;53.798;10.382;2023-02-01T06:18:50;1.40;;;0.70;;
12511;SDS011;6321;53.798;10.382;2023-02-01T06:21:16;4.27;;;1.07;;
12511;SDS011;6321;53.798;10.382;2023-02-01T06:23:49;1.37;;;1.00;;
12511;SDS011;6321;53.798;10.382;2023-02-01T06:26:15;3.37;;;1.20;;
12511;SDS011;6321;53.798;10.382;2023-02-01T06:28:42;6.67;;;1.10;;
12511;SDS011;6321;53.798;10.382;2023-02-01T06:31:09;3.77;;;1.53;;
12511;SDS011;6321;53.798;10.382;2023-02-01T06:33:35;2.80;;;0.90;;
12511;SDS011;6321;53.798;10.382;2023-02-01T06:36:02;5.03;;;1.50;;
12511;SDS011;6321;53.798;10.382;2023-02-01T06:38:29;1.90;;;1.33;;
12511;SDS011;6321;53.798;10.382;2023-02-01T06:40:55;5.13;;;1.57;;
12511;SDS011;6321;53.798;10.382;2023-02-01T06:43:22;2.83;;;1.23;;
12511;SDS011;6321;53.798;10.382;2023-02-01T06:45:48;4.53;;;1.40;;
12511;SDS011;6321;53.798;10.382;2023-02-01T06:48:14;3.60;;;1.40;;
12511;SDS011;6321;53.798;10.382;2023-02-01T06:50:40;4.60;;;1.40;;
12511;SDS011;6321;53.798;10.382;2023-02-01T06:53:06;6.00;;;1.60;;
12511;SDS011;6321;53.798;10.382;2023-02-01T06:55:32;9.93;;;1.20;;
12511;SDS011;6321;53.798;10.382;2023-02-01T06:57:58;5.10;;;1.70;;
12511;SDS011;6321;53.798;10.382;2023-02-01T07:00:25;3.47;;;1.30;;
12511;SDS011;6321;53.798;10.382;2023-02-01T07:02:51;6.07;;;1.70;;
12511;SDS011;6321;53.798;10.382;2023-02-01T07:05:17;2.33;;;1.20;;
12511;SDS011;6321;53.798;10.382;2023-02-01T07:07:43;5.10;;;1.60;;
12511;SDS011;6321;53.798;10.382;2023-02-01T07:10:09;6.33;;;1.80;;
12511;SDS011;6321;53.798;10.382;2023-02-01T07:12:35;7.27;;;1.70;;
12511;SDS011;6321;53.798;10.382;2023-02-01T07:15:02;4.53;;;1.60;;
12511;SDS011;6321;53.798;10.382;2023-02-01T07:17:28;8.20;;;2.10;;
12511;SDS011;6321;53.798;10.382;2023-02-01T07:19:54;3.90;;;1.80;;
12511;SDS011;6321;53.798;10.382;2023-02-01T07:22:20;7.47;;;2.10;;
12511;SDS011;6321;53.798;10.382;2023-02-01T07:24:46;8.43;;;1.60;;
12511;SDS011;6321;53.798;10.382;2023-02-01T07:27:12;7.80;;;2.70;;
12511;SDS011;6321;53.798;10.382;2023-02-01T07:29:38;9.33;;;1.60;;
12511;SDS011;6321;53.798;10.382;2023-02-01T07:32:04;8.27;;;2.30;;
12511;SDS011;6321;53.798;10.382;2023-02-01T07:34:30;5.70;;;2.03;;
12511;SDS011;6321;53.798;10.382;2023-02-01T07:36:57;7.57;;;2.80;;
12511;SDS011;6321;53.798;10.382;2023-02-01T07:39:23;6.40;;;2.07;;
12511;SDS011;6321;53.798;10.382;2023-02-01T07:41:49;13.73;;;3.30;;
12511;SDS011;6321;53.798;10.382;2023-02-01T07:44:15;10.80;;;2.80;;
12511;SDS011;6321;53.798;10.382;2023-02-01T07:46:43;9.90;;;2.63;;
12511;SDS011;6321;53.798;10.382;2023-02-01T07:49:09;12.33;;;3.07;;
12511;SDS011;6321;53.798;10.382;2023-02-01T07:51:37;20.20;;;4.00;;
12511;SDS011;6321;53.798;10.382;2023-02-01T07:54:03;17.40;;;3.67;;
12511;SDS011;6321;53.798;10.382;2023-02-01T07:56:29;12.00;;;3.20;;
12511;SDS011;6321;53.798;10.382;2023-02-01T07:58:54;11.83;;;2.40;;
12511;SDS011;6321;53.798;10.382;2023-02-01T08:01:22;13.10;;;2.63;;
12511;SDS011;6321;53.798;10.382;2023-02-01T08:06:17;15.33;;;3.93;;
12511;SDS011;6321;53.798;10.382;2023-02-01T08:08:44;17.20;;;3.47;;
12511;SDS011;6321;53.798;10.382;2023-02-01T08:11:11;17.27;;;3.17;;
12511;SDS011;6321;53.798;10.382;2023-02-01T08:13:38;9.40;;;2.33;;
12511;SDS011;6321;53.798;10.382;2023-02-01T08:16:05;17.90;;;3.37;;
12511;SDS011;6321;53.798;10.382;2023-02-01T08:18:32;15.20;;;3.40;;
12511;SDS011;6321;53.798;10.382;2023-02-01T08:21:02;9.33;;;2.90;;
12511;SDS011;6321;53.798;10.382;2023-02-01T08:23:29;10.93;;;2.93;;
12511;SDS011;6321;53.798;10.382;2023-02-01T08:26:03;24.50;;;3.50;;
12511;SDS011;6321;53.798;10.382;2023-02-01T08:28:29;7.07;;;2.27;;
12511;SDS011;6321;53.798;10.382;2023-02-01T08:30:55;11.83;;;2.73;;
12511;SDS011;6321;53.798;10.382;2023-02-01T08:33:21;15.17;;;3.47;;
12511;SDS011;6321;53.798;10.382;2023-02-01T08:35:47;12.73;;;3.37;;
12511;SDS011;6321;53.798;10.382;2023-02-01T08:38:13;12.10;;;2.97;;
12511;SDS011;6321;53.798;10.382;2023-02-01T08:40:39;12.10;;;3.53;;
12511;SDS011;6321;53.798;10.382;2023-02-01T08:43:06;16.77;;;3.93;;
12511;SDS011;6321;53.798;10.382;2023-02-01T08:45:32;8.73;;;2.63;;
12511;SDS011;6321;53.798;10.382;2023-02-01T08:47:58;18.07;;;4.37;;
12511;SDS011;6321;53.798;10.382;2023-02-01T08:50:24;9.90;;;3.70;;
12511;SDS011;6321;53.798;10.382;2023-02-01T08:52:51;16.23;;;3.97;;
12511;SDS011;6321;53.798;10.382;2023-02-01T08:55:17;8.60;;;1.77;;
12511;SDS011;6321;53.798;10.382;2023-02-01T08:57:42;16.53;;;3.00;;
12511;SDS011;6321;53.798;10.382;2023-02-01T09:00:10;12.17;;;3.40;;
12511;SDS011;6321;53.798;10.382;2023-02-01T09:02:36;9.20;;;2.43;;
12511;SDS011;6321;53.798;10.382;2023-02-01T09:05:03;9.17;;;2.47;;
12511;SDS011;6321;53.798;10.382;2023-02-01T09:07:29;12.50;;;2.40;;
12511;SDS011;6321;53.798;10.382;2023-02-01T09:09:55;3.53;;;1.40;;
12511;SDS011;6321;53.798;10.382;2023-02-01T09:12:21;6.27;;;2.20;;
12511;SDS011;6321;53.798;10.382;2023-02-01T09:14:47;2.43;;;1.63;;
12511;SDS011;6321;53.798;10.382;2023-02-01T09:17:13;7.57;;;1.60;;
12511;SDS011;6321;53.798;10.382;2023-02-01T09:19:39;5.13;;;1.20;;
12511;SDS011;6321;53.798;10.382;2023-02-01T09:22:05;6.93;;;2.00;;
12511;SDS011;6321;53.798;10.382;2023-02-01T09:24:31;6.47;;;1.80;;
12511;SDS011;6321;53.798;10.382;2023-02-01T09:26:57;5.10;;;1.33;;
12511;SDS011;6321;53.798;10.382;2023-02-01T09:29:23;10.20;;;1.83;;
12511;SDS011;6321;53.798;10.382;2023-02-01T09:31:49;4.77;;;1.30;;
12511;SDS011;6321;53.798;10.382;2023-02-01T09:34:15;5.50;;;1.30;;
12511;SDS011;6321;53.798;10.382;2023-02-01T09:36:41;7.67;;;1.50;;
12511;SDS011;6321;53.798;10.382;2023-02-01T09:39:07;7.33;;;1.50;;
12511;SDS011;6321;53.798;10.382;2023-02-01T09:41:39;7.60;;;1.40;;
12511;SDS011;6321;53.798;10.382;2023-02-01T09:46:34;4.37;;;1.40;;
12511;SDS011;6321;53.798;10.382;2023-02-01T09:49:01;10.07;;;2.27;;
12511;SDS011;6321;53.798;10.382;2023-02-01T09:51:31;7.90;;;2.67;;
12511;SDS011;6321;53.798;10.382;2023-02-01T09:54:05;9.77;;;2.00;;
12511;SDS011;6321;53.798;10.382;2023-02-01T09:56:36;5.47;;;1.97;;
12511;SDS011;6321;53.798;10.382;2023-02-01T10:01:34;10.73;;;2.77;;
12511;SDS011;6321;53.798;10.382;2023-02-01T10:04:05;13.40;;;3.53;;
12511;SDS011;6321;53.798;10.382;2023-02-01T10:06:37;13.07;;;2.60;;
12511;SDS011;6321;53.798;10.382;2023-02-01T10:27:29;23.20;;;4.90;;
12511;SDS011;6321;53.798;10.382;2023-02-01T10:29:59;17.03;;;2.90;;
12511;SDS011;6321;53.798;10.382;2023-02-01T10:32:28;13.93;;;2.90;;
12511;SDS011;6321;53.798;10.382;2023-02-01T10:34:59;7.53;;;3.00;;
12511;SDS011;6321;53.798;10.382;2023-02-01T10:39:52;10.30;;;3.13;;
12511;SDS011;6321;53.798;10.382;2023-02-01T10:42:20;9.93;;;2.87;;
12511;SDS011;6321;53.798;10.382;2023-02-01T10:44:47;10.13;;;3.27;;
12511;SDS011;6321;53.798;10.382;2023-02-01T10:47:13;11.00;;;3.03;;
12511;SDS011;6321;53.798;10.382;2023-02-01T10:49:55;12.47;;;2.43;;
12511;SDS011;6321;53.798;10.382;2023-02-01T10:52:30;9.30;;;3.20;;
12511;SDS011;6321;53.798;10.382;2023-02-01T10:54:56;19.97;;;4.00;;
12511;SDS011;6321;53.798;10.382;2023-02-01T10:57:42;12.27;;;3.70;;
12511;SDS011;6321;53.798;10.382;2023-02-01T11:00:20;17.27;;;5.07;;
12511;SDS011;6321;53.798;10.382;2023-02-01T11:02:47;11.47;;;2.80;;
12511;SDS011;6321;53.798;10.382;2023-02-01T11:05:15;11.27;;;4.00;;
12511;SDS011;6321;53.798;10.382;2023-02-01T11:07:46;18.23;;;3.17;;
12511;SDS011;6321;53.798;10.382;2023-02-01T11:10:33;5.80;;;2.10;;
12511;SDS011;6321;53.798;10.382;2023-02-01T11:13:01;14.27;;;3.33;;
12511;SDS011;6321;53.798;10.382;2023-02-01T11:15:27;18.60;;;3.57;;
12511;SDS011;6321;53.798;10.382;2023-02-01T11:17:53;17.93;;;4.53;;
12511;SDS011;6321;53.798;10.382;2023-02-01T11:22:55;21.03;;;4.00;;
12511;SDS011;6321;53.798;10.382;2023-02-01T11:25:22;11.97;;;3.60;;
12511;SDS011;6321;53.798;10.382;2023-02-01T11:27:49;17.03;;;3.97;;
12511;SDS011;6321;53.798;10.382;2023-02-01T11:30:21;13.90;;;3.80;;
12511;SDS011;6321;53.798;10.382;2023-02-01T11:32:48;13.67;;;3.67;;
12511;SDS011;6321;53.798;10.382;2023-02-01T11:35:16;13.67;;;3.80;;
12511;SDS011;6321;53.798;10.382;2023-02-01T11:37:44;12.07;;;2.80;;
12511;SDS011;6321;53.798;10.382;2023-02-01T11:45:30;5.20;;;1.83;;
12511;SDS011;6321;53.798;10.382;2023-02-01T11:47:58;8.90;;;1.80;;
12511;SDS011;6321;53.798;10.382;2023-02-01T11:50:28;9.17;;;1.67;;
12511;SDS011;6321;53.798;10.382;2023-02-01T11:55:29;14.13;;;2.87;;
12511;SDS011;6321;53.798;10.382;2023-02-01T11:58:03;15.80;;;3.10;;
12511;SDS011;6321;53.798;10.382;2023-02-01T12:03:26;16.07;;;3.37;;
12511;SDS011;6321;53.798;10.382;2023-02-01T12:06:04;10.57;;;2.80;;
12511;SDS011;6321;53.798;10.382;2023-02-01T12:08:42;10.97;;;2.83;;
12511;SDS011;6321;53.798;10.382;2023-02-01T12:11:27;11.40;;;2.90;;
12511;SDS011;6321;53.798;10.382;2023-02-01T12:16:28;10.23;;;1.77;;
12511;SDS011;6321;53.798;10.382;2023-02-01T12:19:09;1.73;;;0.97;;
12511;SDS011;6321;53.798;10.382;2023-02-01T12:26:54;4.03;;;1.50;;
12511;SDS011;6321;53.798;10.382;2023-02-01T12:29:33;7.17;;;1.80;;
12511;SDS011;6321;53.798;10.382;2023-02-01T12:37:30;9.07;;;2.53;;
12511;SDS011;6321;53.798;10.382;2023-02-01T12:42:37;24.30;;;2.80;;
12511;SDS011;6321;53.798;10.382;2023-02-01T12:47:34;10.00;;;2.20;;
12511;SDS011;6321;53.798;10.382;2023-02-01T12:52:30;2.77;;;1.30;;
12511;SDS011;6321;53.798;10.382;2023-02-01T12:57:46;5.80;;;1.23;;
12511;SDS011;6321;53.798;10.382;2023-02-01T13:00:19;4.03;;;1.03;;
12511;SDS011;6321;53.798;10.382;2023-02-01T13:03:00;4.60;;;1.63;;
12511;SDS011;6321;53.798;10.382;2023-02-01T13:05:30;4.87;;;1.37;;
12511;SDS011;6321;53.798;10.382;2023-02-01T13:08:02;4.10;;;1.73;;
12511;SDS011;6321;53.798;10.382;2023-02-01T13:10:36;2.17;;;1.03;;
12511;SDS011;6321;53.798;10.382;2023-02-01T13:13:16;1.73;;;0.87;;
12511;SDS011;6321;53.798;10.382;2023-02-01T13:15:58;0.67;;;0.63;;
12511;SDS011;6321;53.798;10.382;2023-02-01T13:18:32;1.40;;;0.90;;
12511;SDS011;6321;53.798;10.382;2023-02-01T13:21:03;0.93;;;0.83;;
12511;SDS011;6321;53.798;10.382;2023-02-01T13:23:34;0.87;;;0.60;;
12511;SDS011;6321;53.798;10.382;2023-02-01T13:26:01;0.67;;;0.67;;
12511;SDS011;6321;53.798;10.382;2023-02-01T13:31:26;0.77;;;0.70;;
12511;SDS011;6321;53.798;10.382;2023-02-01T13:36:33;0.97;;;0.70;;
12511;SDS011;6321;53.798;10.382;2023-02-01T13:39:18;0.70;;;0.70;;
12511;SDS011;6321;53.798;10.382;2023-02-01T13:41:56;2.23;;;1.10;;
12511;SDS011;6321;53.798;10.382;2023-02-01T13:44:45;1.17;;;0.90;;
12511;SDS011;6321;53.798;10.382;2023-02-01T13:47:12;2.80;;;1.00;;
12511;SDS011;6321;53.798;10.382;2023-02-01T13:49:41;3.73;;;1.00;;
12511;SDS011;6321;53.798;10.382;2023-02-01T13:52:19;1.00;;;0.70;;
12511;SDS011;6321;53.798;10.382;2023-02-01T13:54:47;0.40;;;0.40;;
12511;SDS011;6321;53.798;10.382;2023-02-01T13:57:28;0.63;;;0.30;;
12511;SDS011;6321;53.798;10.382;2023-02-01T14:00:05;0.77;;;0.60;;
12511;SDS011;6321;53.798;10.382;2023-02-01T14:05:04;4.27;;;0.97;;
12511;SDS011;6321;53.798;10.382;2023-02-01T14:07:30;2.50;;;1.00;;
12511;SDS011;6321;53.798;10.382;2023-02-01T14:09:56;1.10;;;0.70;;
12511;SDS011;6321;53.798;10.382;2023-02-01T14:15:24;2.43;;;0.93;;
12511;SDS011;6321;53.798;10.382;2023-02-01T14:17:50;3.67;;;1.00;;
12511;SDS011;6321;53.798;10.382;2023-02-01T14:23:02;6.40;;;1.20;;
12511;SDS011;6321;53.798;10.382;2023-02-01T14:25:32;3.67;;;1.50;;
12511;SDS011;6321;53.798;10.382;2023-02-01T14:27:58;7.17;;;1.20;;
12511;SDS011;6321;53.798;10.382;2023-02-01T14:30:24;3.73;;;1.47;;
12511;SDS011;6321;53.798;10.382;2023-02-01T14:32:50;4.60;;;1.27;;
12511;SDS011;6321;53.798;10.382;2023-02-01T14:35:20;6.30;;;1.40;;
12511;SDS011;6321;53.798;10.382;2023-02-01T14:37:47;5.10;;;2.00;;
12511;SDS011;6321;53.798;10.382;2023-02-01T14:40:19;6.27;;;2.33;;
12511;SDS011;6321;53.798;10.382;2023-02-01T14:42:46;1.20;;;0.93;;
12511;SDS011;6321;53.798;10.382;2023-02-01T14:47:48;3.30;;;1.03;;
12511;SDS011;6321;53.798;10.382;2023-02-01T14:52:48;3.63;;;1.43;;
12511;SDS011;6321;53.798;10.382;2023-02-01T14:55:17;3.90;;;1.03;;
12511;SDS011;6321;53.798;10.382;2023-02-01T14:57:44;2.33;;;0.80;;
12511;SDS011;6321;53.798;10.382;2023-02-01T15:02:41;3.13;;;1.20;;
12511;SDS011;6321;53.798;10.382;2023-02-01T15:05:20;2.10;;;0.80;;
12511;SDS011;6321;53.798;10.382;2023-02-01T15:07:47;3.93;;;1.07;;
12511;SDS011;6321;53.798;10.382;2023-02-01T15:10:13;2.00;;;0.97;;
12511;SDS011;6321;53.798;10.382;2023-02-01T15:12:40;4.10;;;1.37;;
12511;SDS011;6321;53.798;10.382;2023-02-01T15:15:11;4.27;;;1.60;;
12511;SDS011;6321;53.798;10.382;2023-02-01T15:17:37;5.90;;;1.20;;
12511;SDS011;6321;53.798;10.382;2023-02-01T15:20:11;7.67;;;1.60;;
12511;SDS011;6321;53.798;10.382;2023-02-01T15:22:37;3.77;;;1.57;;
12511;SDS011;6321;53.798;10.382;2023-02-01T15:25:03;8.13;;;1.43;;
12511;SDS011;6321;53.798;10.382;2023-02-01T15:27:29;7.83;;;1.70;;
12511;SDS011;6321;53.798;10.382;2023-02-01T15:30:06;9.20;;;1.90;;
12511;SDS011;6321;53.798;10.382;2023-02-01T15:32:34;5.80;;;2.00;;
12511;SDS011;6321;53.798;10.382;2023-02-01T15:35:00;7.33;;;1.87;;
12511;SDS011;6321;53.798;10.382;2023-02-01T15:37:27;9.70;;;1.87;;
12511;SDS011;6321;53.798;10.382;2023-02-01T15:42:55;13.60;;;3.10;;
12511;SDS011;6321;53.798;10.382;2023-02-01T15:45:23;7.33;;;1.97;;
12511;SDS011;6321;53.798;10.382;2023-02-01T15:47:51;7.97;;;2.10;;
12511;SDS011;6321;53.798;10.382;2023-02-01T15:50:17;8.63;;;1.93;;
12511;SDS011;6321;53.798;10.382;2023-02-01T15:52:45;15.53;;;3.37;;
12511;SDS011;6321;53.798;10.382;2023-02-01T15:55:18;4.10;;;1.80;;
12511;SDS011;6321;53.798;10.382;2023-02-01T15:57:45;7.93;;;2.20;;
12511;SDS011;6321;53.798;10.382;2023-02-01T16:00:21;11.63;;;2.27;;
12511;SDS011;6321;53.798;10.382;2023-02-01T16:02:52;9.30;;;2.63;;
12511;SDS011;6321;53.798;10.382;2023-02-01T16:08:05;4.53;;;1.73;;
12511;SDS011;6321;53.798;10.382;2023-02-01T16:10:37;14.83;;;3.03;;
12511;SDS011;6321;53.798;10.382;2023-02-01T16:13:03;11.90;;;2.90;;
12511;SDS011;6321;53.798;10.382;2023-02-01T16:15:29;12.23;;;2.00;;
12511;SDS011;6321;53.798;10.382;2023-02-01T16:17:55;15.73;;;3.23;;
12511;SDS011;6321;53.798;10.382;2023-02-01T16:20:21;16.30;;;3.03;;
12511;SDS011;6321;53.798;10.382;2023-02-01T16:22:47;8.90;;;3.03;;
12511;SDS011;6321;53.798;10.382;2023-02-01T16:25:13;17.50;;;3.63;;
12511;SDS011;6321;53.798;10.382;2023-02-01T16:27:39;5.83;;;2.20;;
12511;SDS011;6321;53.798;10.382;2023-02-01T16:30:05;18.20;;;3.23;;
12511;SDS011;6321;53.798;10.382;2023-02-01T16:32:34;15.03;;;3.30;;
12511;SDS011;6321;53.798;10.382;2023-02-01T16:35:03;22.17;;;3.20;;
12511;SDS011;6321;53.798;10.382;2023-02-01T16:37:29;14.03;;;4.60;;
12511;SDS011;6321;53.798;10.382;2023-02-01T16:39:57;15.70;;;3.70;;